sensor_id;sensor_type;location;lat;lon;timestamp;P1;durP1;ratioP1;P2;durP2;ratioP2
29838;SDS011;18669;53.356;-1.464;2023-07-31T00:00:11;0.80;;;0.80;;
29838;SDS011;18669;53.356;-1.464;2023-07-31T00:02:56;1.90;;;1.10;;
29838;SDS011;18669;53.356;-1.464;2023-07-31T00:05:41;2.33;;;0.80;;
29838;SDS011;18669;53.356;-1.464;2023-07-31T00:08:26;2.35;;;0.70;;
29838;SDS011;18669;53.356;-1.464;2023-07-31T00:11:11;4.15;;;0.90;;
29838;SDS011;18669;53.356;-1.464;2023-07-31T00:13:56;2.72;;;0.90;;
29838;SDS011;18669;53.356;-1.464;2023-07-31T00:16:41;2.05;;;0.75;;
29838;SDS011;18669;53.356;-1.464;2023-07-31T00:19:25;1.35;;;0.90;;
29838;SDS011;18669;53.356;-1.464;2023-07-31T00:22:10;2.83;;;1.00;;
29838;SDS011;18669;53.356;-1.464;2023-07-31T00:24:56;2.33;;;0.90;;
29838;SDS011;18669;53.356;-1.464;2023-07-31T00:27:41;1.25;;;1.00;;
29838;SDS011;18669;53.356;-1.464;2023-07-31T00:30:28;3.65;;;1.42;;
29838;SDS011;18669;53.356;-1.464;2023-07-31T00:33:13;1.95;;;1.10;;
29838;SDS011;18669;53.356;-1.464;2023-07-31T00:35:58;3.63;;;1.02;;
29838;SDS011;18669;53.356;-1.464;2023-07-31T00:38:43;1.88;;;1.10;;
29838;SDS011;18669;53.356;-1.464;2023-07-31T00:41:28;1.30;;;1.02;;
29838;SDS011;18669;53.356;-1.464;2023-07-31T00:44:13;6.30;;;1.25;;
29838;SDS011;18669;53.356;-1.464;2023-07-31T00:46:58;2.80;;;1.20;;
29838;SDS011;18669;53.356;-1.464;2023-07-31T00:49:43;4.05;;;1.48;;
29838;SDS011;18669;53.356;-1.464;2023-07-31T00:52:28;1.75;;;1.02;;
29838;SDS011;18669;53.356;-1.464;2023-07-31T00:55:13;0.85;;;0.85;;
29838;SDS011;18669;53.356;-1.464;2023-07-31T00:57:59;1.55;;;1.00;;
29838;SDS011;18669;53.356;-1.464;2023-07-31T01:00:44;6.88;;;1.98;;
29838;SDS011;18669;53.356;-1.464;2023-07-31T01:03:28;2.72;;;0.90;;
29838;SDS011;18669;53.356;-1.464;2023-07-31T01:12:21;0.95;;;0.85;;
29838;SDS011;18669;53.356;-1.464;2023-07-31T01:20:41;1.40;;;0.90;;
29838;SDS011;18669;53.356;-1.464;2023-07-31T01:26:36;0.90;;;0.73;;
29838;SDS011;18669;53.356;-1.464;2023-07-31T01:32:45;2.50;;;0.90;;
29838;SDS011;18669;53.356;-1.464;2023-07-31T01:35:36;0.80;;;0.80;;
29838;SDS011;18669;53.356;-1.464;2023-07-31T01:38:22;1.73;;;0.95;;
29838;SDS011;18669;53.356;-1.464;2023-07-31T01:41:07;1.17;;;0.90;;
29838;SDS011;18669;53.356;-1.464;2023-07-31T01:43:51;0.98;;;0.90;;
29838;SDS011;18669;53.356;-1.464;2023-07-31T01:46:36;1.00;;;0.90;;
29838;SDS011;18669;53.356;-1.464;2023-07-31T01:49:21;1.35;;;0.82;;
29838;SDS011;18669;53.356;-1.464;2023-07-31T01:52:06;0.95;;;0.80;;
29838;SDS011;18669;53.356;-1.464;2023-07-31T01:54:51;0.70;;;0.70;;
29838;SDS011;18669;53.356;-1.464;2023-07-31T01:57:36;1.30;;;0.82;;
29838;SDS011;18669;53.356;-1.464;2023-07-31T02:00:22;4.32;;;0.80;;
29838;SDS011;18669;53.356;-1.464;2023-07-31T02:03:07;1.15;;;0.70;;
29838;SDS011;18669;53.356;-1.464;2023-07-31T02:05:53;0.85;;;0.85;;
29838;SDS011;18669;53.356;-1.464;2023-07-31T02:08:38;1.42;;;0.73;;
29838;SDS011;18669;53.356;-1.464;2023-07-31T02:11:23;0.77;;;0.50;;
29838;SDS011;18669;53.356;-1.464;2023-07-31T02:14:08;1.58;;;0.77;;
29838;SDS011;18669;53.356;-1.464;2023-07-31T02:16:53;1.95;;;0.80;;
29838;SDS011;18669;53.356;-1.464;2023-07-31T02:19:38;0.93;;;0.55;;
29838;SDS011;18669;53.356;-1.464;2023-07-31T02:22:23;1.05;;;0.60;;
29838;SDS011;18669;53.356;-1.464;2023-07-31T02:25:08;0.50;;;0.50;;
29838;SDS011;18669;53.356;-1.464;2023-07-31T02:27:53;10.65;;;0.57;;
29838;SDS011;18669;53.356;-1.464;2023-07-31T02:30:38;0.80;;;0.40;;
29838;SDS011;18669;53.356;-1.464;2023-07-31T02:33:23;1.52;;;0.50;;
29838;SDS011;18669;53.356;-1.464;2023-07-31T02:36:07;0.50;;;0.50;;
29838;SDS011;18669;53.356;-1.464;2023-07-31T02:38:52;0.38;;;0.38;;
29838;SDS011;18669;53.356;-1.464;2023-07-31T02:41:37;0.40;;;0.40;;
29838;SDS011;18669;53.356;-1.464;2023-07-31T02:44:22;0.65;;;0.40;;
29838;SDS011;18669;53.356;-1.464;2023-07-31T02:47:07;0.40;;;0.40;;
29838;SDS011;18669;53.356;-1.464;2023-07-31T02:49:52;0.40;;;0.40;;
29838;SDS011;18669;53.356;-1.464;2023-07-31T02:52:37;0.30;;;0.30;;
29838;SDS011;18669;53.356;-1.464;2023-07-31T02:55:21;1.13;;;0.50;;
29838;SDS011;18669;53.356;-1.464;2023-07-31T02:58:06;0.40;;;0.40;;
29838;SDS011;18669;53.356;-1.464;2023-07-31T03:00:51;0.57;;;0.30;;
29838;SDS011;18669;53.356;-1.464;2023-07-31T03:03:36;0.38;;;0.35;;
29838;SDS011;18669;53.356;-1.464;2023-07-31T03:06:21;0.30;;;0.30;;
29838;SDS011;18669;53.356;-1.464;2023-07-31T03:09:05;1.05;;;0.40;;
29838;SDS011;18669;53.356;-1.464;2023-07-31T03:11:50;0.65;;;0.40;;
29838;SDS011;18669;53.356;-1.464;2023-07-31T03:14:35;0.40;;;0.40;;
29838;SDS011;18669;53.356;-1.464;2023-07-31T03:17:20;0.88;;;0.50;;
29838;SDS011;18669;53.356;-1.464;2023-07-31T03:20:05;1.38;;;0.60;;
29838;SDS011;18669;53.356;-1.464;2023-07-31T03:22:50;0.50;;;0.50;;
29838;SDS011;18669;53.356;-1.464;2023-07-31T03:25:35;1.38;;;0.50;;
29838;SDS011;18669;53.356;-1.464;2023-07-31T03:28:20;1.60;;;0.80;;
29838;SDS011;18669;53.356;-1.464;2023-07-31T03:31:05;2.35;;;0.70;;
29838;SDS011;18669;53.356;-1.464;2023-07-31T03:33:50;1.85;;;0.85;;
29838;SDS011;18669;53.356;-1.464;2023-07-31T03:36:35;2.72;;;0.70;;
29838;SDS011;18669;53.356;-1.464;2023-07-31T03:39:20;4.60;;;0.90;;
29838;SDS011;18669;53.356;-1.464;2023-07-31T03:42:05;1.13;;;0.80;;
29838;SDS011;18669;53.356;-1.464;2023-07-31T03:44:50;0.80;;;0.80;;
29838;SDS011;18669;53.356;-1.464;2023-07-31T03:47:35;1.83;;;1.10;;
29838;SDS011;18669;53.356;-1.464;2023-07-31T03:50:20;1.27;;;1.10;;
29838;SDS011;18669;53.356;-1.464;2023-07-31T03:53:05;1.20;;;1.10;;
29838;SDS011;18669;53.356;-1.464;2023-07-31T03:55:50;1.42;;;1.13;;
29838;SDS011;18669;53.356;-1.464;2023-07-31T03:58:35;3.22;;;1.00;;
29838;SDS011;18669;53.356;-1.464;2023-07-31T04:01:21;1.90;;;1.10;;
29838;SDS011;18669;53.356;-1.464;2023-07-31T04:04:05;2.03;;;1.10;;
29838;SDS011;18669;53.356;-1.464;2023-07-31T04:06:50;2.15;;;1.38;;
29838;SDS011;18669;53.356;-1.464;2023-07-31T04:09:35;2.97;;;1.25;;
29838;SDS011;18669;53.356;-1.464;2023-07-31T04:12:20;1.10;;;1.10;;
29838;SDS011;18669;53.356;-1.464;2023-07-31T04:15:05;2.78;;;1.20;;
29838;SDS011;18669;53.356;-1.464;2023-07-31T04:17:50;1.48;;;1.10;;
29838;SDS011;18669;53.356;-1.464;2023-07-31T04:20:35;1.10;;;1.10;;
29838;SDS011;18669;53.356;-1.464;2023-07-31T04:23:20;1.65;;;1.20;;
29838;SDS011;18669;53.356;-1.464;2023-07-31T04:26:05;2.47;;;1.20;;
29838;SDS011;18669;53.356;-1.464;2023-07-31T04:28:50;1.92;;;1.45;;
29838;SDS011;18669;53.356;-1.464;2023-07-31T04:31:35;1.58;;;1.20;;
29838;SDS011;18669;53.356;-1.464;2023-07-31T04:34:20;1.40;;;1.30;;
29838;SDS011;18669;53.356;-1.464;2023-07-31T04:37:05;3.42;;;1.42;;
29838;SDS011;18669;53.356;-1.464;2023-07-31T04:39:49;1.35;;;1.20;;
29838;SDS011;18669;53.356;-1.464;2023-07-31T04:42:34;1.60;;;1.23;;
29838;SDS011;18669;53.356;-1.464;2023-07-31T04:45:19;1.30;;;1.20;;
29838;SDS011;18669;53.356;-1.464;2023-07-31T04:48:04;2.88;;;1.20;;
29838;SDS011;18669;53.356;-1.464;2023-07-31T04:50:49;1.38;;;1.20;;
29838;SDS011;18669;53.356;-1.464;2023-07-31T04:53:34;2.58;;;1.40;;
29838;SDS011;18669;53.356;-1.464;2023-07-31T04:56:19;2.58;;;1.20;;
29838;SDS011;18669;53.356;-1.464;2023-07-31T04:59:03;2.13;;;1.10;;
29838;SDS011;18669;53.356;-1.464;2023-07-31T05:01:48;1.10;;;1.10;;
29838;SDS011;18669;53.356;-1.464;2023-07-31T05:04:33;3.72;;;1.13;;
29838;SDS011;18669;53.356;-1.464;2023-07-31T05:07:18;3.30;;;1.20;;
29838;SDS011;18669;53.356;-1.464;2023-07-31T05:10:03;3.70;;;1.83;;
29838;SDS011;18669;53.356;-1.464;2023-07-31T05:12:48;3.47;;;1.05;;
29838;SDS011;18669;53.356;-1.464;2023-07-31T05:15:33;8.68;;;1.38;;
29838;SDS011;18669;53.356;-1.464;2023-07-31T05:18:18;1.30;;;1.20;;
29838;SDS011;18669;53.356;-1.464;2023-07-31T05:21:02;1.63;;;1.02;;
29838;SDS011;18669;53.356;-1.464;2023-07-31T05:23:47;1.98;;;1.35;;
29838;SDS011;18669;53.356;-1.464;2023-07-31T05:26:32;1.65;;;1.00;;
29838;SDS011;18669;53.356;-1.464;2023-07-31T05:29:17;1.40;;;1.10;;
29838;SDS011;18669;53.356;-1.464;2023-07-31T05:32:02;2.38;;;1.02;;
29838;SDS011;18669;53.356;-1.464;2023-07-31T05:34:50;2.60;;;1.20;;
29838;SDS011;18669;53.356;-1.464;2023-07-31T05:37:36;1.80;;;1.00;;
29838;SDS011;18669;53.356;-1.464;2023-07-31T05:40:21;1.58;;;1.10;;
29838;SDS011;18669;53.356;-1.464;2023-07-31T05:43:06;4.13;;;1.13;;
29838;SDS011;18669;53.356;-1.464;2023-07-31T05:45:52;3.33;;;1.30;;
29838;SDS011;18669;53.356;-1.464;2023-07-31T05:48:37;4.60;;;1.85;;
29838;SDS011;18669;53.356;-1.464;2023-07-31T05:51:22;2.75;;;1.50;;
29838;SDS011;18669;53.356;-1.464;2023-07-31T05:54:07;2.22;;;1.60;;
29838;SDS011;18669;53.356;-1.464;2023-07-31T05:56:52;3.42;;;1.80;;
29838;SDS011;18669;53.356;-1.464;2023-07-31T05:59:37;4.05;;;1.70;;
29838;SDS011;18669;53.356;-1.464;2023-07-31T06:02:22;3.22;;;1.77;;
29838;SDS011;18669;53.356;-1.464;2023-07-31T06:05:06;5.40;;;1.90;;
29838;SDS011;18669;53.356;-1.464;2023-07-31T06:07:52;3.67;;;2.08;;
29838;SDS011;18669;53.356;-1.464;2023-07-31T06:10:37;4.60;;;2.00;;
29838;SDS011;18669;53.356;-1.464;2023-07-31T06:13:22;4.85;;;2.00;;
29838;SDS011;18669;53.356;-1.464;2023-07-31T06:16:06;3.17;;;1.80;;
29838;SDS011;18669;53.356;-1.464;2023-07-31T06:18:52;2.78;;;1.77;;
29838;SDS011;18669;53.356;-1.464;2023-07-31T06:21:37;5.28;;;1.92;;
29838;SDS011;18669;53.356;-1.464;2023-07-31T06:24:22;3.72;;;2.10;;
29838;SDS011;18669;53.356;-1.464;2023-07-31T06:27:08;6.40;;;2.28;;
29838;SDS011;18669;53.356;-1.464;2023-07-31T06:29:56;9.20;;;2.53;;
29838;SDS011;18669;53.356;-1.464;2023-07-31T06:32:43;3.45;;;1.85;;
29838;SDS011;18669;53.356;-1.464;2023-07-31T06:35:28;4.68;;;2.33;;
29838;SDS011;18669;53.356;-1.464;2023-07-31T06:38:13;4.35;;;2.38;;
29838;SDS011;18669;53.356;-1.464;2023-07-31T06:40:58;4.55;;;2.30;;
29838;SDS011;18669;53.356;-1.464;2023-07-31T06:43:43;6.97;;;3.63;;
29838;SDS011;18669;53.356;-1.464;2023-07-31T06:46:32;5.90;;;2.92;;
29838;SDS011;18669;53.356;-1.464;2023-07-31T06:49:17;9.27;;;3.03;;
29838;SDS011;18669;53.356;-1.464;2023-07-31T06:52:02;4.63;;;2.42;;
29838;SDS011;18669;53.356;-1.464;2023-07-31T06:55:00;7.25;;;2.45;;
29838;SDS011;18669;53.356;-1.464;2023-07-31T06:57:48;5.32;;;3.20;;
29838;SDS011;18669;53.356;-1.464;2023-07-31T07:00:34;5.72;;;3.05;;
29838;SDS011;18669;53.356;-1.464;2023-07-31T07:03:19;5.47;;;2.70;;
29838;SDS011;18669;53.356;-1.464;2023-07-31T07:06:04;8.13;;;3.38;;
29838;SDS011;18669;53.356;-1.464;2023-07-31T07:08:49;8.48;;;2.75;;
29838;SDS011;18669;53.356;-1.464;2023-07-31T07:11:34;9.93;;;3.10;;
29838;SDS011;18669;53.356;-1.464;2023-07-31T07:14:21;6.93;;;3.00;;
29838;SDS011;18669;53.356;-1.464;2023-07-31T07:17:06;9.25;;;2.80;;
29838;SDS011;18669;53.356;-1.464;2023-07-31T07:19:51;8.25;;;3.50;;
29838;SDS011;18669;53.356;-1.464;2023-07-31T07:22:36;6.85;;;2.67;;
29838;SDS011;18669;53.356;-1.464;2023-07-31T07:25:21;7.93;;;2.95;;
29838;SDS011;18669;53.356;-1.464;2023-07-31T07:28:06;8.88;;;2.67;;
29838;SDS011;18669;53.356;-1.464;2023-07-31T07:30:51;5.63;;;2.47;;
29838;SDS011;18669;53.356;-1.464;2023-07-31T07:33:37;8.55;;;4.15;;
29838;SDS011;18669;53.356;-1.464;2023-07-31T07:36:22;8.80;;;3.22;;
29838;SDS011;18669;53.356;-1.464;2023-07-31T07:39:08;4.10;;;2.35;;
29838;SDS011;18669;53.356;-1.464;2023-07-31T07:41:54;9.18;;;2.80;;
29838;SDS011;18669;53.356;-1.464;2023-07-31T07:44:39;6.97;;;2.90;;
29838;SDS011;18669;53.356;-1.464;2023-07-31T07:47:24;10.02;;;2.60;;
29838;SDS011;18669;53.356;-1.464;2023-07-31T07:50:09;7.38;;;2.80;;
29838;SDS011;18669;53.356;-1.464;2023-07-31T07:52:54;7.35;;;2.83;;
29838;SDS011;18669;53.356;-1.464;2023-07-31T07:55:39;5.10;;;2.65;;
29838;SDS011;18669;53.356;-1.464;2023-07-31T07:58:23;4.63;;;2.55;;
29838;SDS011;18669;53.356;-1.464;2023-07-31T08:01:08;6.10;;;2.53;;
29838;SDS011;18669;53.356;-1.464;2023-07-31T08:03:53;8.70;;;2.63;;
29838;SDS011;18669;53.356;-1.464;2023-07-31T08:06:38;9.38;;;2.95;;
29838;SDS011;18669;53.356;-1.464;2023-07-31T08:09:24;8.43;;;3.10;;
29838;SDS011;18669;53.356;-1.464;2023-07-31T08:12:09;5.43;;;2.80;;
29838;SDS011;18669;53.356;-1.464;2023-07-31T08:14:53;5.88;;;3.00;;
29838;SDS011;18669;53.356;-1.464;2023-07-31T08:17:38;7.70;;;2.72;;
29838;SDS011;18669;53.356;-1.464;2023-07-31T08:20:23;9.25;;;2.92;;
29838;SDS011;18669;53.356;-1.464;2023-07-31T08:23:08;9.93;;;2.80;;
29838;SDS011;18669;53.356;-1.464;2023-07-31T08:25:53;6.70;;;2.75;;
29838;SDS011;18669;53.356;-1.464;2023-07-31T08:28:38;8.50;;;3.38;;
29838;SDS011;18669;53.356;-1.464;2023-07-31T08:31:24;6.82;;;3.10;;
29838;SDS011;18669;53.356;-1.464;2023-07-31T08:34:09;11.05;;;2.88;;
29838;SDS011;18669;53.356;-1.464;2023-07-31T08:36:54;7.75;;;3.03;;
29838;SDS011;18669;53.356;-1.464;2023-07-31T08:39:39;10.18;;;3.15;;
29838;SDS011;18669;53.356;-1.464;2023-07-31T08:42:24;10.93;;;3.20;;
29838;SDS011;18669;53.356;-1.464;2023-07-31T08:45:13;6.07;;;2.83;;
29838;SDS011;18669;53.356;-1.464;2023-07-31T08:48:02;8.00;;;3.00;;
29838;SDS011;18669;53.356;-1.464;2023-07-31T08:50:48;12.07;;;2.67;;
29838;SDS011;18669;53.356;-1.464;2023-07-31T08:53:34;9.43;;;3.10;;
29838;SDS011;18669;53.356;-1.464;2023-07-31T08:56:19;9.53;;;3.40;;
29838;SDS011;18669;53.356;-1.464;2023-07-31T08:59:05;10.10;;;3.00;;
29838;SDS011;18669;53.356;-1.464;2023-07-31T09:01:52;7.65;;;2.95;;
29838;SDS011;18669;53.356;-1.464;2023-07-31T09:04:38;10.00;;;3.13;;
29838;SDS011;18669;53.356;-1.464;2023-07-31T09:07:23;12.43;;;3.13;;
29838;SDS011;18669;53.356;-1.464;2023-07-31T09:10:09;10.07;;;2.95;;
29838;SDS011;18669;53.356;-1.464;2023-07-31T09:12:54;10.65;;;3.40;;
29838;SDS011;18669;53.356;-1.464;2023-07-31T09:15:40;11.25;;;3.20;;
29838;SDS011;18669;53.356;-1.464;2023-07-31T09:18:27;11.05;;;3.25;;
29838;SDS011;18669;53.356;-1.464;2023-07-31T09:21:12;7.57;;;2.70;;
29838;SDS011;18669;53.356;-1.464;2023-07-31T09:23:57;6.15;;;2.60;;
29838;SDS011;18669;53.356;-1.464;2023-07-31T09:26:42;7.82;;;2.70;;
29838;SDS011;18669;53.356;-1.464;2023-07-31T09:29:28;8.93;;;2.65;;
29838;SDS011;18669;53.356;-1.464;2023-07-31T09:32:17;7.40;;;3.13;;
29838;SDS011;18669;53.356;-1.464;2023-07-31T09:35:12;8.52;;;3.53;;
29838;SDS011;18669;53.356;-1.464;2023-07-31T09:37:59;9.07;;;2.80;;
29838;SDS011;18669;53.356;-1.464;2023-07-31T09:40:48;7.78;;;2.45;;
29838;SDS011;18669;53.356;-1.464;2023-07-31T09:43:33;4.53;;;2.47;;
29838;SDS011;18669;53.356;-1.464;2023-07-31T09:46:18;6.13;;;2.42;;
29838;SDS011;18669;53.356;-1.464;2023-07-31T09:49:09;6.80;;;2.42;;
29838;SDS011;18669;53.356;-1.464;2023-07-31T09:51:55;7.93;;;2.58;;
29838;SDS011;18669;53.356;-1.464;2023-07-31T09:54:39;6.85;;;2.67;;
29838;SDS011;18669;53.356;-1.464;2023-07-31T09:57:24;10.82;;;3.05;;
29838;SDS011;18669;53.356;-1.464;2023-07-31T10:00:11;9.15;;;2.55;;
29838;SDS011;18669;53.356;-1.464;2023-07-31T10:05:53;8.35;;;2.55;;
29838;SDS011;18669;53.356;-1.464;2023-07-31T10:08:39;5.75;;;2.30;;
29838;SDS011;18669;53.356;-1.464;2023-07-31T10:11:25;5.15;;;2.70;;
29838;SDS011;18669;53.356;-1.464;2023-07-31T10:14:13;8.40;;;2.33;;
29838;SDS011;18669;53.356;-1.464;2023-07-31T10:16:58;5.90;;;2.35;;
29838;SDS011;18669;53.356;-1.464;2023-07-31T10:19:43;4.57;;;2.75;;
29838;SDS011;18669;53.356;-1.464;2023-07-31T10:22:29;7.37;;;2.77;;
29838;SDS011;18669;53.356;-1.464;2023-07-31T10:25:15;9.15;;;2.88;;
29838;SDS011;18669;53.356;-1.464;2023-07-31T10:28:01;3.97;;;2.70;;
29838;SDS011;18669;53.356;-1.464;2023-07-31T10:30:46;5.88;;;2.72;;
29838;SDS011;18669;53.356;-1.464;2023-07-31T10:36:18;11.90;;;3.60;;
29838;SDS011;18669;53.356;-1.464;2023-07-31T10:39:04;5.70;;;3.13;;
29838;SDS011;18669;53.356;-1.464;2023-07-31T10:42:10;8.05;;;2.72;;
29838;SDS011;18669;53.356;-1.464;2023-07-31T10:44:57;5.47;;;2.60;;
29838;SDS011;18669;53.356;-1.464;2023-07-31T10:47:44;7.57;;;2.58;;
29838;SDS011;18669;53.356;-1.464;2023-07-31T10:50:32;6.90;;;2.33;;
29838;SDS011;18669;53.356;-1.464;2023-07-31T10:53:31;3.25;;;1.80;;
29838;SDS011;18669;53.356;-1.464;2023-07-31T10:56:17;4.50;;;2.10;;
29838;SDS011;18669;53.356;-1.464;2023-07-31T10:59:06;11.48;;;2.40;;
29838;SDS011;18669;53.356;-1.464;2023-07-31T11:01:52;6.32;;;2.20;;
29838;SDS011;18669;53.356;-1.464;2023-07-31T11:04:37;6.60;;;2.30;;
29838;SDS011;18669;53.356;-1.464;2023-07-31T11:07:25;5.82;;;2.10;;
29838;SDS011;18669;53.356;-1.464;2023-07-31T11:10:30;5.90;;;2.42;;
29838;SDS011;18669;53.356;-1.464;2023-07-31T11:13:15;6.80;;;2.42;;
29838;SDS011;18669;53.356;-1.464;2023-07-31T11:16:00;9.57;;;2.50;;
29838;SDS011;18669;53.356;-1.464;2023-07-31T11:18:45;7.10;;;2.40;;
29838;SDS011;18669;53.356;-1.464;2023-07-31T11:21:32;9.73;;;3.10;;
29838;SDS011;18669;53.356;-1.464;2023-07-31T11:24:17;7.10;;;2.90;;
29838;SDS011;18669;53.356;-1.464;2023-07-31T11:27:07;7.78;;;2.35;;
29838;SDS011;18669;53.356;-1.464;2023-07-31T11:29:52;10.57;;;4.07;;
29838;SDS011;18669;53.356;-1.464;2023-07-31T11:32:37;6.22;;;2.88;;
29838;SDS011;18669;53.356;-1.464;2023-07-31T11:35:21;6.03;;;2.72;;
29838;SDS011;18669;53.356;-1.464;2023-07-31T11:38:06;4.13;;;2.42;;
29838;SDS011;18669;53.356;-1.464;2023-07-31T11:40:53;8.52;;;3.20;;
29838;SDS011;18669;53.356;-1.464;2023-07-31T11:43:38;2.95;;;1.83;;
29838;SDS011;18669;53.356;-1.464;2023-07-31T11:46:24;7.65;;;2.25;;
29838;SDS011;18669;53.356;-1.464;2023-07-31T11:49:09;4.95;;;2.38;;
29838;SDS011;18669;53.356;-1.464;2023-07-31T11:51:54;5.50;;;1.73;;
29838;SDS011;18669;53.356;-1.464;2023-07-31T11:54:40;8.20;;;2.03;;
29838;SDS011;18669;53.356;-1.464;2023-07-31T11:57:25;6.05;;;2.58;;
29838;SDS011;18669;53.356;-1.464;2023-07-31T12:00:10;6.15;;;2.00;;
29838;SDS011;18669;53.356;-1.464;2023-07-31T12:02:58;6.68;;;2.25;;
29838;SDS011;18669;53.356;-1.464;2023-07-31T12:05:43;6.28;;;2.28;;
29838;SDS011;18669;53.356;-1.464;2023-07-31T12:08:28;5.32;;;2.10;;
29838;SDS011;18669;53.356;-1.464;2023-07-31T12:11:13;7.85;;;2.30;;
29838;SDS011;18669;53.356;-1.464;2023-07-31T12:13:59;9.30;;;2.30;;
29838;SDS011;18669;53.356;-1.464;2023-07-31T12:16:44;6.82;;;2.47;;
29838;SDS011;18669;53.356;-1.464;2023-07-31T12:19:29;4.75;;;2.25;;
29838;SDS011;18669;53.356;-1.464;2023-07-31T12:22:15;4.97;;;2.50;;
29838;SDS011;18669;53.356;-1.464;2023-07-31T12:25:00;6.35;;;2.38;;
29838;SDS011;18669;53.356;-1.464;2023-07-31T12:27:45;8.50;;;2.47;;
29838;SDS011;18669;53.356;-1.464;2023-07-31T12:30:34;6.20;;;2.20;;
29838;SDS011;18669;53.356;-1.464;2023-07-31T12:33:19;6.20;;;2.40;;
29838;SDS011;18669;53.356;-1.464;2023-07-31T12:36:06;7.32;;;1.98;;
29838;SDS011;18669;53.356;-1.464;2023-07-31T12:38:53;5.25;;;2.30;;
29838;SDS011;18669;53.356;-1.464;2023-07-31T12:41:40;8.18;;;2.33;;
29838;SDS011;18669;53.356;-1.464;2023-07-31T12:44:25;9.32;;;2.40;;
29838;SDS011;18669;53.356;-1.464;2023-07-31T12:47:10;7.35;;;2.50;;
29838;SDS011;18669;53.356;-1.464;2023-07-31T12:49:55;4.03;;;2.00;;
29838;SDS011;18669;53.356;-1.464;2023-07-31T12:52:39;6.47;;;2.50;;
29838;SDS011;18669;53.356;-1.464;2023-07-31T12:55:24;5.03;;;2.38;;
29838;SDS011;18669;53.356;-1.464;2023-07-31T12:58:09;6.93;;;3.15;;
29838;SDS011;18669;53.356;-1.464;2023-07-31T13:00:54;9.80;;;2.63;;
29838;SDS011;18669;53.356;-1.464;2023-07-31T13:03:39;7.95;;;2.40;;
29838;SDS011;18669;53.356;-1.464;2023-07-31T13:06:24;6.63;;;2.50;;
29838;SDS011;18669;53.356;-1.464;2023-07-31T13:09:09;9.40;;;3.03;;
29838;SDS011;18669;53.356;-1.464;2023-07-31T13:11:55;9.50;;;2.55;;
29838;SDS011;18669;53.356;-1.464;2023-07-31T13:14:39;4.25;;;2.30;;
29838;SDS011;18669;53.356;-1.464;2023-07-31T13:17:24;5.90;;;2.20;;
29838;SDS011;18669;53.356;-1.464;2023-07-31T13:20:10;7.20;;;2.58;;
29838;SDS011;18669;53.356;-1.464;2023-07-31T13:22:55;8.63;;;2.40;;
29838;SDS011;18669;53.356;-1.464;2023-07-31T13:25:39;8.38;;;2.60;;
29838;SDS011;18669;53.356;-1.464;2023-07-31T13:28:24;11.10;;;2.40;;
29838;SDS011;18669;53.356;-1.464;2023-07-31T13:31:09;9.48;;;3.20;;
29838;SDS011;18669;53.356;-1.464;2023-07-31T13:33:55;9.07;;;2.77;;
29838;SDS011;18669;53.356;-1.464;2023-07-31T13:36:40;6.88;;;2.47;;
29838;SDS011;18669;53.356;-1.464;2023-07-31T13:39:25;19.58;;;2.72;;
29838;SDS011;18669;53.356;-1.464;2023-07-31T13:42:10;7.05;;;2.30;;
29838;SDS011;18669;53.356;-1.464;2023-07-31T13:44:56;8.50;;;2.58;;
29838;SDS011;18669;53.356;-1.464;2023-07-31T13:47:41;10.52;;;2.90;;
29838;SDS011;18669;53.356;-1.464;2023-07-31T13:50:26;11.65;;;3.17;;
29838;SDS011;18669;53.356;-1.464;2023-07-31T13:53:11;7.82;;;2.67;;
29838;SDS011;18669;53.356;-1.464;2023-07-31T13:55:58;12.68;;;2.90;;
29838;SDS011;18669;53.356;-1.464;2023-07-31T13:58:43;5.28;;;2.72;;
29838;SDS011;18669;53.356;-1.464;2023-07-31T14:01:28;9.27;;;3.03;;
29838;SDS011;18669;53.356;-1.464;2023-07-31T14:04:13;6.55;;;2.42;;
29838;SDS011;18669;53.356;-1.464;2023-07-31T14:06:58;7.53;;;2.60;;
29838;SDS011;18669;53.356;-1.464;2023-07-31T14:09:43;6.30;;;2.60;;
29838;SDS011;18669;53.356;-1.464;2023-07-31T14:12:31;8.23;;;2.95;;
29838;SDS011;18669;53.356;-1.464;2023-07-31T14:15:25;9.95;;;2.92;;
29838;SDS011;18669;53.356;-1.464;2023-07-31T14:18:10;12.85;;;2.85;;
29838;SDS011;18669;53.356;-1.464;2023-07-31T14:20:55;5.63;;;2.22;;
29838;SDS011;18669;53.356;-1.464;2023-07-31T14:23:45;6.03;;;2.35;;
29838;SDS011;18669;53.356;-1.464;2023-07-31T14:26:30;10.73;;;2.70;;
29838;SDS011;18669;53.356;-1.464;2023-07-31T14:29:16;6.78;;;2.40;;
29838;SDS011;18669;53.356;-1.464;2023-07-31T14:32:02;4.95;;;2.47;;
29838;SDS011;18669;53.356;-1.464;2023-07-31T14:34:46;4.50;;;2.20;;
29838;SDS011;18669;53.356;-1.464;2023-07-31T14:37:41;8.27;;;2.40;;
29838;SDS011;18669;53.356;-1.464;2023-07-31T14:40:27;5.65;;;2.20;;
29838;SDS011;18669;53.356;-1.464;2023-07-31T14:43:12;2.88;;;2.13;;
29838;SDS011;18669;53.356;-1.464;2023-07-31T14:45:57;7.13;;;2.45;;
29838;SDS011;18669;53.356;-1.464;2023-07-31T14:48:43;7.32;;;2.10;;
29838;SDS011;18669;53.356;-1.464;2023-07-31T14:51:28;7.25;;;2.58;;
29838;SDS011;18669;53.356;-1.464;2023-07-31T14:54:13;7.03;;;2.53;;
29838;SDS011;18669;53.356;-1.464;2023-07-31T14:56:58;6.85;;;2.28;;
29838;SDS011;18669;53.356;-1.464;2023-07-31T14:59:43;6.75;;;2.10;;
29838;SDS011;18669;53.356;-1.464;2023-07-31T15:02:29;6.15;;;2.20;;
29838;SDS011;18669;53.356;-1.464;2023-07-31T15:08:00;7.88;;;2.20;;
29838;SDS011;18669;53.356;-1.464;2023-07-31T15:10:46;4.40;;;1.50;;
29838;SDS011;18669;53.356;-1.464;2023-07-31T15:13:31;5.88;;;2.30;;
29838;SDS011;18669;53.356;-1.464;2023-07-31T15:16:15;5.13;;;2.08;;
29838;SDS011;18669;53.356;-1.464;2023-07-31T15:19:00;15.23;;;2.60;;
29838;SDS011;18669;53.356;-1.464;2023-07-31T15:21:46;5.65;;;1.80;;
29838;SDS011;18669;53.356;-1.464;2023-07-31T15:24:30;11.00;;;2.15;;
29838;SDS011;18669;53.356;-1.464;2023-07-31T15:27:15;10.73;;;2.88;;
29838;SDS011;18669;53.356;-1.464;2023-07-31T15:30:00;4.40;;;1.85;;
29838;SDS011;18669;53.356;-1.464;2023-07-31T15:32:45;16.60;;;3.35;;
29838;SDS011;18669;53.356;-1.464;2023-07-31T15:38:17;6.03;;;2.25;;
29838;SDS011;18669;53.356;-1.464;2023-07-31T15:41:01;6.72;;;2.38;;
29838;SDS011;18669;53.356;-1.464;2023-07-31T15:43:46;5.35;;;1.70;;
29838;SDS011;18669;53.356;-1.464;2023-07-31T15:46:31;5.82;;;1.67;;
29838;SDS011;18669;53.356;-1.464;2023-07-31T15:49:16;8.20;;;2.15;;
29838;SDS011;18669;53.356;-1.464;2023-07-31T15:52:02;5.35;;;1.67;;
29838;SDS011;18669;53.356;-1.464;2023-07-31T15:54:47;2.47;;;0.80;;
29838;SDS011;18669;53.356;-1.464;2023-07-31T15:57:32;1.05;;;0.70;;
29838;SDS011;18669;53.356;-1.464;2023-07-31T16:00:17;2.85;;;0.68;;
29838;SDS011;18669;53.356;-1.464;2023-07-31T16:03:02;3.10;;;1.30;;
29838;SDS011;18669;53.356;-1.464;2023-07-31T16:05:47;3.78;;;0.82;;
29838;SDS011;18669;53.356;-1.464;2023-07-31T16:08:32;1.90;;;0.93;;
29838;SDS011;18669;53.356;-1.464;2023-07-31T16:11:17;1.00;;;0.90;;
29838;SDS011;18669;53.356;-1.464;2023-07-31T16:14:02;0.88;;;0.82;;
29838;SDS011;18669;53.356;-1.464;2023-07-31T16:16:47;1.55;;;0.93;;
29838;SDS011;18669;53.356;-1.464;2023-07-31T16:19:32;0.82;;;0.82;;
29838;SDS011;18669;53.356;-1.464;2023-07-31T16:22:17;3.22;;;1.10;;
29838;SDS011;18669;53.356;-1.464;2023-07-31T16:25:02;1.30;;;1.00;;
29838;SDS011;18669;53.356;-1.464;2023-07-31T16:27:47;2.17;;;0.90;;
29838;SDS011;18669;53.356;-1.464;2023-07-31T16:30:34;1.25;;;0.82;;
29838;SDS011;18669;53.356;-1.464;2023-07-31T16:33:33;1.52;;;0.98;;
29838;SDS011;18669;53.356;-1.464;2023-07-31T16:36:24;1.10;;;0.90;;
29838;SDS011;18669;53.356;-1.464;2023-07-31T16:39:09;2.03;;;0.95;;
29838;SDS011;18669;53.356;-1.464;2023-07-31T16:41:54;3.15;;;1.05;;
29838;SDS011;18669;53.356;-1.464;2023-07-31T16:44:43;1.38;;;0.75;;
29838;SDS011;18669;53.356;-1.464;2023-07-31T16:47:28;1.45;;;1.02;;
29838;SDS011;18669;53.356;-1.464;2023-07-31T16:50:13;1.23;;;0.80;;